Fowler, Kansas
Current Conditions -  °F | °C
As of 12:52 AM on Thursday 23 Oct 2014 (Local Time) from KDDC Reporting Station
Overcast Overcast  
Wind Chill: 62°   Ceiling: 1400
Heat Index: 62°   Visibility: 8mi
Dew Point: 57°   Wind: 10mph
Humidity: 84%   Direction: 200°SSW
Pressure: 30.07"   Gusts: NA
Location:  37.39°N, 100.2°W
Report Text: KDDC 230552Z AUTO 20009KT 8SM OVC014 17/14 A3007 RMK AO2 SLP163 T01670139 10172 20161 402170117 50001
Loading
Personal Weather Stations






























Interactive Weather Map
Tropical Storm Tracking
New forecast layout! Learn more

10-Day Weather Forecast

Advertisements
Track Severe Weather on mobile